sensor_id;sensor_type;location;lat;lon;timestamp;pressure;altitude;pressure_sealevel;temperature;humidity
4469;BME280;2247;42.666;23.292;2022-12-10T00:01:35;93731.75;;;14.47;61.02
4469;BME280;2247;42.666;23.292;2022-12-10T00:04:03;93726.88;;;14.32;61.09
4469;BME280;2247;42.666;23.292;2022-12-10T00:06:33;93733.38;;;14.08;61.57
4469;BME280;2247;42.666;23.292;2022-12-10T00:09:01;93728.81;;;13.92;62.75
4469;BME280;2247;42.666;23.292;2022-12-10T00:11:28;93724.84;;;14.20;61.79
4469;BME280;2247;42.666;23.292;2022-12-10T00:13:57;93731.41;;;14.31;61.27
4469;BME280;2247;42.666;23.292;2022-12-10T00:16:27;93744.13;;;14.12;62.14
4469;BME280;2247;42.666;23.292;2022-12-10T00:18:56;93727.66;;;14.32;61.03
4469;BME280;2247;42.666;23.292;2022-12-10T00:21:26;93737.75;;;14.13;61.35
4469;BME280;2247;42.666;23.292;2022-12-10T00:23:53;93728.56;;;14.10;62.06
4469;BME280;2247;42.666;23.292;2022-12-10T00:26:23;93730.69;;;13.91;62.52
4469;BME280;2247;42.666;23.292;2022-12-10T00:28:51;93721.69;;;14.01;62.35
4469;BME280;2247;42.666;23.292;2022-12-10T00:31:19;93705.72;;;13.84;62.60
4469;BME280;2247;42.666;23.292;2022-12-10T00:33:49;93709.94;;;13.85;63.44
4469;BME280;2247;42.666;23.292;2022-12-10T00:36:19;93728.25;;;14.12;62.43
4469;BME280;2247;42.666;23.292;2022-12-10T00:38:47;93718.19;;;14.40;60.57
4469;BME280;2247;42.666;23.292;2022-12-10T00:41:15;93728.75;;;14.23;61.27
4469;BME280;2247;42.666;23.292;2022-12-10T00:43:43;93735.75;;;14.27;62.00
4469;BME280;2247;42.666;23.292;2022-12-10T00:46:11;93715.84;;;14.55;60.12
4469;BME280;2247;42.666;23.292;2022-12-10T00:48:39;93731.63;;;14.04;61.88
4469;BME280;2247;42.666;23.292;2022-12-10T00:51:09;93721.50;;;13.89;62.69
4469;BME280;2247;42.666;23.292;2022-12-10T00:53:38;93731.13;;;13.85;63.05
4469;BME280;2247;42.666;23.292;2022-12-10T00:56:07;93748.09;;;13.84;62.42
4469;BME280;2247;42.666;23.292;2022-12-10T00:58:36;93737.13;;;13.59;63.72
4469;BME280;2247;42.666;23.292;2022-12-10T01:01:10;93736.19;;;13.64;63.37
4469;BME280;2247;42.666;23.292;2022-12-10T01:03:38;93743.00;;;13.56;64.16
4469;BME280;2247;42.666;23.292;2022-12-10T01:06:12;93722.78;;;13.60;63.80
4469;BME280;2247;42.666;23.292;2022-12-10T01:08:40;93717.75;;;13.90;63.19
4469;BME280;2247;42.666;23.292;2022-12-10T01:11:08;93741.38;;;14.17;62.61
4469;BME280;2247;42.666;23.292;2022-12-10T01:13:36;93723.56;;;14.09;62.69
4469;BME280;2247;42.666;23.292;2022-12-10T01:16:05;93726.00;;;13.97;62.78
4469;BME280;2247;42.666;23.292;2022-12-10T01:18:34;93720.50;;;14.24;62.31
4469;BME280;2247;42.666;23.292;2022-12-10T01:21:02;93718.16;;;14.31;61.29
4469;BME280;2247;42.666;23.292;2022-12-10T01:23:33;93711.59;;;14.29;61.51
4469;BME280;2247;42.666;23.292;2022-12-10T01:26:01;93709.72;;;14.29;62.06
4469;BME280;2247;42.666;23.292;2022-12-10T01:28:30;93715.22;;;14.41;61.78
4469;BME280;2247;42.666;23.292;2022-12-10T01:31:00;93708.38;;;14.49;61.42
4469;BME280;2247;42.666;23.292;2022-12-10T01:33:28;93701.50;;;14.39;61.75
4469;BME280;2247;42.666;23.292;2022-12-10T01:35:56;93699.13;;;14.29;61.66
4469;BME280;2247;42.666;23.292;2022-12-10T01:38:23;93710.63;;;14.07;63.01
4469;BME280;2247;42.666;23.292;2022-12-10T01:40:52;93695.69;;;14.20;61.81
4469;BME280;2247;42.666;23.292;2022-12-10T01:43:19;93716.31;;;13.75;63.55
4469;BME280;2247;42.666;23.292;2022-12-10T01:45:46;93717.63;;;13.95;63.08
4469;BME280;2247;42.666;23.292;2022-12-10T01:48:14;93703.34;;;14.30;62.56
4469;BME280;2247;42.666;23.292;2022-12-10T01:50:41;93678.53;;;14.26;61.28
4469;BME280;2247;42.666;23.292;2022-12-10T01:53:08;93680.56;;;14.03;62.70
4469;BME280;2247;42.666;23.292;2022-12-10T01:55:46;93699.97;;;13.90;63.30
4469;BME280;2247;42.666;23.292;2022-12-10T01:58:17;93693.59;;;13.83;63.83
4469;BME280;2247;42.666;23.292;2022-12-10T02:00:51;93697.38;;;14.07;62.79
4469;BME280;2247;42.666;23.292;2022-12-10T02:03:29;93695.34;;;14.13;62.41
4469;BME280;2247;42.666;23.292;2022-12-10T02:06:06;93708.31;;;14.32;61.67
4469;BME280;2247;42.666;23.292;2022-12-10T02:08:40;93721.69;;;14.01;62.94
4469;BME280;2247;42.666;23.292;2022-12-10T02:11:16;93717.63;;;14.12;62.34
4469;BME280;2247;42.666;23.292;2022-12-10T02:13:50;93718.78;;;14.28;62.30
4469;BME280;2247;42.666;23.292;2022-12-10T02:16:21;93717.09;;;14.49;61.79
4469;BME280;2247;42.666;23.292;2022-12-10T02:19:06;93704.97;;;14.66;60.80
4469;BME280;2247;42.666;23.292;2022-12-10T02:21:37;93661.91;;;14.51;60.78
4469;BME280;2247;42.666;23.292;2022-12-10T02:24:08;93696.44;;;13.95;62.86
4469;BME280;2247;42.666;23.292;2022-12-10T02:26:43;93689.16;;;13.69;64.46
4469;BME280;2247;42.666;23.292;2022-12-10T02:29:15;93685.94;;;13.81;63.71
4469;BME280;2247;42.666;23.292;2022-12-10T02:31:46;93677.06;;;13.86;63.90
4469;BME280;2247;42.666;23.292;2022-12-10T02:34:15;93674.91;;;14.05;62.92
4469;BME280;2247;42.666;23.292;2022-12-10T02:36:46;93676.66;;;14.18;62.62
4469;BME280;2247;42.666;23.292;2022-12-10T02:39:18;93661.56;;;14.10;62.41
4469;BME280;2247;42.666;23.292;2022-12-10T02:41:50;93669.47;;;13.93;63.69
4469;BME280;2247;42.666;23.292;2022-12-10T02:44:24;93665.06;;;13.79;64.26
4469;BME280;2247;42.666;23.292;2022-12-10T02:46:53;93660.06;;;13.78;63.86
4469;BME280;2247;42.666;23.292;2022-12-10T02:49:23;93656.47;;;13.65;64.50
4469;BME280;2247;42.666;23.292;2022-12-10T02:51:52;93657.03;;;13.45;65.99
4469;BME280;2247;42.666;23.292;2022-12-10T02:54:36;93677.03;;;13.68;65.28
4469;BME280;2247;42.666;23.292;2022-12-10T02:57:18;93684.69;;;13.78;65.20
4469;BME280;2247;42.666;23.292;2022-12-10T03:00:03;93682.38;;;13.86;64.08
4469;BME280;2247;42.666;23.292;2022-12-10T03:02:38;93666.66;;;13.98;63.55
4469;BME280;2247;42.666;23.292;2022-12-10T03:05:15;93668.31;;;13.76;64.72
4469;BME280;2247;42.666;23.292;2022-12-10T03:07:47;93645.94;;;13.83;64.29
4469;BME280;2247;42.666;23.292;2022-12-10T03:10:24;93677.06;;;13.86;64.80
4469;BME280;2247;42.666;23.292;2022-12-10T03:12:58;93668.84;;;13.96;64.72
4469;BME280;2247;42.666;23.292;2022-12-10T03:15:28;93661.50;;;13.75;64.81
4469;BME280;2247;42.666;23.292;2022-12-10T03:17:58;93666.44;;;13.77;65.05
4469;BME280;2247;42.666;23.292;2022-12-10T03:20:30;93655.06;;;13.68;65.31
4469;BME280;2247;42.666;23.292;2022-12-10T03:22:59;93666.72;;;13.58;65.96
4469;BME280;2247;42.666;23.292;2022-12-10T03:25:30;93673.63;;;13.76;65.14
4469;BME280;2247;42.666;23.292;2022-12-10T03:27:58;93658.03;;;13.66;65.33
4469;BME280;2247;42.666;23.292;2022-12-10T03:30:27;93662.75;;;13.87;65.05
4469;BME280;2247;42.666;23.292;2022-12-10T03:32:55;93666.00;;;13.84;65.03
4469;BME280;2247;42.666;23.292;2022-12-10T03:35:24;93666.78;;;13.75;64.94
4469;BME280;2247;42.666;23.292;2022-12-10T03:37:51;93665.78;;;13.54;65.41
4469;BME280;2247;42.666;23.292;2022-12-10T03:40:22;93650.34;;;13.56;65.37
4469;BME280;2247;42.666;23.292;2022-12-10T03:42:50;93647.25;;;13.54;66.09
4469;BME280;2247;42.666;23.292;2022-12-10T03:45:17;93653.50;;;13.67;65.87
4469;BME280;2247;42.666;23.292;2022-12-10T03:47:46;93637.63;;;13.67;65.41
4469;BME280;2247;42.666;23.292;2022-12-10T03:50:14;93629.19;;;13.48;67.38
4469;BME280;2247;42.666;23.292;2022-12-10T03:52:42;93630.06;;;13.43;67.34
4469;BME280;2247;42.666;23.292;2022-12-10T03:55:09;93641.22;;;13.23;69.07
4469;BME280;2247;42.666;23.292;2022-12-10T03:57:37;93628.28;;;13.21;69.45
4469;BME280;2247;42.666;23.292;2022-12-10T04:00:05;93621.84;;;13.45;68.90
4469;BME280;2247;42.666;23.292;2022-12-10T04:02:32;93637.75;;;13.53;68.73
4469;BME280;2247;42.666;23.292;2022-12-10T04:05:01;93649.09;;;13.45;68.44
4469;BME280;2247;42.666;23.292;2022-12-10T04:07:29;93632.34;;;13.67;68.64
4469;BME280;2247;42.666;23.292;2022-12-10T04:09:57;93626.59;;;13.73;68.05
4469;BME280;2247;42.666;23.292;2022-12-10T04:12:24;93636.53;;;13.76;67.96
4469;BME280;2247;42.666;23.292;2022-12-10T04:14:51;93614.91;;;13.74;68.07
4469;BME280;2247;42.666;23.292;2022-12-10T04:17:35;93627.81;;;13.67;67.71
4469;BME280;2247;42.666;23.292;2022-12-10T04:20:04;93630.16;;;13.77;67.74
4469;BME280;2247;42.666;23.292;2022-12-10T04:22:51;93645.28;;;13.86;67.77
4469;BME280;2247;42.666;23.292;2022-12-10T04:25:35;93656.84;;;14.07;67.28
4469;BME280;2247;42.666;23.292;2022-12-10T04:28:20;93658.88;;;14.18;66.47
4469;BME280;2247;42.666;23.292;2022-12-10T04:30:47;93667.47;;;14.15;66.26
4469;BME280;2247;42.666;23.292;2022-12-10T04:33:14;93666.53;;;14.20;66.07
4469;BME280;2247;42.666;23.292;2022-12-10T04:35:43;93666.56;;;14.54;65.66
4469;BME280;2247;42.666;23.292;2022-12-10T04:38:10;93660.00;;;14.78;64.55
4469;BME280;2247;42.666;23.292;2022-12-10T04:40:37;93664.66;;;14.81;63.63
4469;BME280;2247;42.666;23.292;2022-12-10T04:43:04;93665.91;;;14.92;63.99
4469;BME280;2247;42.666;23.292;2022-12-10T04:45:33;93659.06;;;14.82;63.81
4469;BME280;2247;42.666;23.292;2022-12-10T04:48:01;93668.56;;;14.92;63.44
4469;BME280;2247;42.666;23.292;2022-12-10T04:50:28;93669.47;;;15.05;63.28
4469;BME280;2247;42.666;23.292;2022-12-10T04:52:56;93662.63;;;14.95;63.49
4469;BME280;2247;42.666;23.292;2022-12-10T04:55:23;93654.84;;;14.81;63.71
4469;BME280;2247;42.666;23.292;2022-12-10T04:57:50;93646.28;;;14.76;63.26
4469;BME280;2247;42.666;23.292;2022-12-10T06:29:12;93658.34;;;15.20;66.23
4469;BME280;2247;42.666;23.292;2022-12-10T06:31:54;93646.56;;;14.83;66.71
4469;BME280;2247;42.666;23.292;2022-12-10T06:34:29;93624.94;;;14.55;67.98
4469;BME280;2247;42.666;23.292;2022-12-10T06:39:42;93644.75;;;14.57;68.56
4469;BME280;2247;42.666;23.292;2022-12-10T06:42:09;93645.81;;;14.74;67.48
4469;BME280;2247;42.666;23.292;2022-12-10T06:44:38;93647.69;;;14.65;67.73
4469;BME280;2247;42.666;23.292;2022-12-10T06:47:06;93649.88;;;14.63;68.21
4469;BME280;2247;42.666;23.292;2022-12-10T06:49:33;93664.34;;;14.91;67.77
4469;BME280;2247;42.666;23.292;2022-12-10T06:52:01;93661.94;;;15.15;67.44
4469;BME280;2247;42.666;23.292;2022-12-10T06:54:29;93664.31;;;15.08;66.57
4469;BME280;2247;42.666;23.292;2022-12-10T06:56:56;93671.88;;;15.35;66.35
4469;BME280;2247;42.666;23.292;2022-12-10T06:59:24;93661.63;;;15.25;66.10
4469;BME280;2247;42.666;23.292;2022-12-10T07:01:53;93669.72;;;15.29;66.08
4469;BME280;2247;42.666;23.292;2022-12-10T07:04:23;93669.69;;;15.37;65.25
4469;BME280;2247;42.666;23.292;2022-12-10T07:06:50;93688.56;;;15.36;65.94
4469;BME280;2247;42.666;23.292;2022-12-10T07:11:52;93686.56;;;15.42;65.46
4469;BME280;2247;42.666;23.292;2022-12-10T07:14:21;93675.34;;;15.27;65.95
4469;BME280;2247;42.666;23.292;2022-12-10T07:16:49;93677.66;;;15.29;65.97
4469;BME280;2247;42.666;23.292;2022-12-10T07:19:18;93668.47;;;15.35;66.18
4469;BME280;2247;42.666;23.292;2022-12-10T07:21:45;93666.28;;;15.28;65.90
4469;BME280;2247;42.666;23.292;2022-12-10T07:26:47;93643.78;;;15.34;65.60
4469;BME280;2247;42.666;23.292;2022-12-10T07:29:21;93643.22;;;15.12;66.10
4469;BME280;2247;42.666;23.292;2022-12-10T07:31:58;93632.38;;;15.34;66.36
4469;BME280;2247;42.666;23.292;2022-12-10T07:34:28;93642.28;;;15.16;66.28
4469;BME280;2247;42.666;23.292;2022-12-10T07:37:05;93655.44;;;15.42;65.96
4469;BME280;2247;42.666;23.292;2022-12-10T07:39:39;93652.94;;;15.46;65.51
4469;BME280;2247;42.666;23.292;2022-12-10T07:42:08;93652.25;;;15.66;65.29
4469;BME280;2247;42.666;23.292;2022-12-10T07:44:35;93645.25;;;15.91;64.74
4469;BME280;2247;42.666;23.292;2022-12-10T07:47:03;93660.22;;;15.95;63.83
4469;BME280;2247;42.666;23.292;2022-12-10T07:49:32;93655.03;;;15.99;63.70
4469;BME280;2247;42.666;23.292;2022-12-10T07:51:59;93644.81;;;16.09;63.28
4469;BME280;2247;42.666;23.292;2022-12-10T07:54:27;93639.00;;;16.16;62.94
4469;BME280;2247;42.666;23.292;2022-12-10T07:57:05;93638.47;;;16.23;62.33
4469;BME280;2247;42.666;23.292;2022-12-10T08:02:24;93631.22;;;16.11;62.96
4469;BME280;2247;42.666;23.292;2022-12-10T08:04:55;93622.47;;;16.10;63.55
4469;BME280;2247;42.666;23.292;2022-12-10T08:07:21;93610.59;;;16.29;63.36
4469;BME280;2247;42.666;23.292;2022-12-10T08:09:48;93623.47;;;16.18;63.24
4469;BME280;2247;42.666;23.292;2022-12-10T08:12:15;93606.78;;;16.18;63.28
4469;BME280;2247;42.666;23.292;2022-12-10T08:14:42;93603.47;;;16.21;63.23
4469;BME280;2247;42.666;23.292;2022-12-10T08:17:09;93607.47;;;16.27;62.70
4469;BME280;2247;42.666;23.292;2022-12-10T08:19:37;93601.91;;;16.20;63.50
4469;BME280;2247;42.666;23.292;2022-12-10T08:22:05;93604.50;;;16.28;63.18
4469;BME280;2247;42.666;23.292;2022-12-10T08:24:32;93614.75;;;16.38;63.00
4469;BME280;2247;42.666;23.292;2022-12-10T08:26:59;93619.28;;;16.38;62.83
4469;BME280;2247;42.666;23.292;2022-12-10T08:29:25;93604.97;;;16.30;62.71
4469;BME280;2247;42.666;23.292;2022-12-10T08:31:52;93595.00;;;16.39;62.80
4469;BME280;2247;42.666;23.292;2022-12-10T08:34:19;93592.81;;;16.41;62.24
4469;BME280;2247;42.666;23.292;2022-12-10T08:36:47;93591.53;;;16.27;62.95
4469;BME280;2247;42.666;23.292;2022-12-10T08:39:15;93604.78;;;15.85;64.88
4469;BME280;2247;42.666;23.292;2022-12-10T08:41:42;93590.22;;;16.12;64.42
4469;BME280;2247;42.666;23.292;2022-12-10T08:44:10;93589.97;;;16.26;63.19
4469;BME280;2247;42.666;23.292;2022-12-10T08:46:37;93592.56;;;16.13;64.01
4469;BME280;2247;42.666;23.292;2022-12-10T08:49:06;93586.88;;;16.24;63.99
4469;BME280;2247;42.666;23.292;2022-12-10T08:51:33;93574.00;;;16.26;63.29
4469;BME280;2247;42.666;23.292;2022-12-10T08:54:00;93581.03;;;16.09;64.47
4469;BME280;2247;42.666;23.292;2022-12-10T08:56:29;93578.28;;;16.18;64.74
4469;BME280;2247;42.666;23.292;2022-12-10T08:58:56;93589.97;;;16.05;64.62
4469;BME280;2247;42.666;23.292;2022-12-10T09:01:22;93594.84;;;16.24;64.61
4469;BME280;2247;42.666;23.292;2022-12-10T09:03:49;93590.09;;;16.29;64.32
4469;BME280;2247;42.666;23.292;2022-12-10T09:06:18;93573.44;;;16.53;63.13
4469;BME280;2247;42.666;23.292;2022-12-10T09:08:46;93569.25;;;16.52;62.89
4469;BME280;2247;42.666;23.292;2022-12-10T09:11:14;93569.56;;;16.18;64.24
4469;BME280;2247;42.666;23.292;2022-12-10T09:13:43;93554.91;;;15.91;64.97
4469;BME280;2247;42.666;23.292;2022-12-10T09:16:11;93553.28;;;15.98;65.26
4469;BME280;2247;42.666;23.292;2022-12-10T09:18:38;93549.91;;;16.10;66.06
4469;BME280;2247;42.666;23.292;2022-12-10T09:21:06;93559.66;;;16.39;66.08
4469;BME280;2247;42.666;23.292;2022-12-10T09:23:34;93568.13;;;16.53;64.81
4469;BME280;2247;42.666;23.292;2022-12-10T09:26:04;93555.81;;;16.69;64.50
4469;BME280;2247;42.666;23.292;2022-12-10T09:28:31;93553.31;;;16.97;64.44
4469;BME280;2247;42.666;23.292;2022-12-10T09:31:00;93549.91;;;17.21;62.81
4469;BME280;2247;42.666;23.292;2022-12-10T09:33:28;93551.00;;;17.08;62.32
4469;BME280;2247;42.666;23.292;2022-12-10T09:35:55;93549.22;;;17.00;62.24
4469;BME280;2247;42.666;23.292;2022-12-10T09:38:21;93553.38;;;16.76;63.07
4469;BME280;2247;42.666;23.292;2022-12-10T09:40:53;93540.97;;;16.80;62.51
4469;BME280;2247;42.666;23.292;2022-12-10T09:43:26;93535.44;;;16.73;62.58
4469;BME280;2247;42.666;23.292;2022-12-10T09:46:01;93523.66;;;16.74;63.21
4469;BME280;2247;42.666;23.292;2022-12-10T09:48:39;93537.50;;;16.35;64.37
4469;BME280;2247;42.666;23.292;2022-12-10T09:51:12;93539.91;;;16.28;64.85
4469;BME280;2247;42.666;23.292;2022-12-10T09:53:46;93522.06;;;16.61;64.47
4469;BME280;2247;42.666;23.292;2022-12-10T09:56:21;93515.25;;;16.84;63.16
4469;BME280;2247;42.666;23.292;2022-12-10T09:58:49;93524.13;;;16.88;62.73
4469;BME280;2247;42.666;23.292;2022-12-10T10:01:19;93526.75;;;16.64;63.27
4469;BME280;2247;42.666;23.292;2022-12-10T10:03:51;93506.81;;;16.94;63.48
4469;BME280;2247;42.666;23.292;2022-12-10T10:06:21;93502.53;;;17.14;63.45
4469;BME280;2247;42.666;23.292;2022-12-10T10:08:51;93507.38;;;17.37;61.93
4469;BME280;2247;42.666;23.292;2022-12-10T10:11:20;93522.59;;;17.48;61.67
4469;BME280;2247;42.666;23.292;2022-12-10T10:13:52;93506.78;;;17.80;61.83
4469;BME280;2247;42.666;23.292;2022-12-10T10:16:25;93494.97;;;17.93;60.78
4469;BME280;2247;42.666;23.292;2022-12-10T10:18:56;93498.38;;;18.05;59.65
4469;BME280;2247;42.666;23.292;2022-12-10T10:21:26;93501.00;;;18.18;59.91
4469;BME280;2247;42.666;23.292;2022-12-10T10:23:54;93485.53;;;18.23;59.14
4469;BME280;2247;42.666;23.292;2022-12-10T10:26:23;93488.66;;;18.25;58.37
4469;BME280;2247;42.666;23.292;2022-12-10T10:28:55;93472.47;;;18.34;58.82
4469;BME280;2247;42.666;23.292;2022-12-10T10:31:26;93463.53;;;18.42;57.83
4469;BME280;2247;42.666;23.292;2022-12-10T10:33:56;93448.66;;;17.97;58.56
4469;BME280;2247;42.666;23.292;2022-12-10T10:36:26;93457.06;;;17.99;59.09
4469;BME280;2247;42.666;23.292;2022-12-10T10:38:53;93448.69;;;18.13;59.24
4469;BME280;2247;42.666;23.292;2022-12-10T10:41:23;93459.91;;;17.91;59.20
4469;BME280;2247;42.666;23.292;2022-12-10T10:43:58;93464.47;;;18.06;59.01
4469;BME280;2247;42.666;23.292;2022-12-10T10:46:28;93459.97;;;18.22;59.06
4469;BME280;2247;42.666;23.292;2022-12-10T10:49:13;93446.50;;;18.31;57.59
4469;BME280;2247;42.666;23.292;2022-12-10T10:51:42;93441.56;;;18.17;57.90
4469;BME280;2247;42.666;23.292;2022-12-10T10:54:10;93438.19;;;18.04;58.33
4469;BME280;2247;42.666;23.292;2022-12-10T10:56:40;93438.94;;;18.05;58.31
4469;BME280;2247;42.666;23.292;2022-12-10T10:59:25;93423.88;;;17.57;59.94
4469;BME280;2247;42.666;23.292;2022-12-10T11:02:00;93428.84;;;17.70;59.91
4469;BME280;2247;42.666;23.292;2022-12-10T11:04:31;93433.13;;;17.87;60.07
4469;BME280;2247;42.666;23.292;2022-12-10T11:07:04;93433.41;;;17.98;59.43
4469;BME280;2247;42.666;23.292;2022-12-10T11:09:33;93432.25;;;18.11;59.68
4469;BME280;2247;42.666;23.292;2022-12-10T11:12:04;93414.19;;;18.20;58.57
4469;BME280;2247;42.666;23.292;2022-12-10T11:14:33;93418.00;;;17.91;58.75
4469;BME280;2247;42.666;23.292;2022-12-10T11:17:17;93400.75;;;18.01;58.85
4469;BME280;2247;42.666;23.292;2022-12-10T11:19:56;93374.69;;;17.94;58.73
4469;BME280;2247;42.666;23.292;2022-12-10T11:22:24;93378.78;;;17.92;59.53
4469;BME280;2247;42.666;23.292;2022-12-10T11:24:52;93366.16;;;17.89;59.96
4469;BME280;2247;42.666;23.292;2022-12-10T11:27:29;93377.28;;;17.91;59.95
4469;BME280;2247;42.666;23.292;2022-12-10T11:30:03;93382.34;;;17.96;60.45
4469;BME280;2247;42.666;23.292;2022-12-10T11:32:43;93367.22;;;18.16;60.37
4469;BME280;2247;42.666;23.292;2022-12-10T11:35:17;93386.44;;;18.37;59.89
4469;BME280;2247;42.666;23.292;2022-12-10T11:37:50;93371.03;;;18.46;59.03
4469;BME280;2247;42.666;23.292;2022-12-10T11:40:32;93374.03;;;18.44;59.31
4469;BME280;2247;42.666;23.292;2022-12-10T11:45:58;93377.56;;;18.48;58.75
4469;BME280;2247;42.666;23.292;2022-12-10T11:48:39;93358.81;;;18.61;58.44
4469;BME280;2247;42.666;23.292;2022-12-10T11:51:15;93359.91;;;18.13;59.11
4469;BME280;2247;42.666;23.292;2022-12-10T11:54:03;93369.97;;;18.19;59.43
4469;BME280;2247;42.666;23.292;2022-12-10T11:56:35;93356.13;;;18.29;59.18
4469;BME280;2247;42.666;23.292;2022-12-10T11:59:14;93344.69;;;18.29;58.97
4469;BME280;2247;42.666;23.292;2022-12-10T12:01:56;93363.13;;;18.18;59.05
4469;BME280;2247;42.666;23.292;2022-12-10T12:04:39;93353.97;;;18.19;59.27
4469;BME280;2247;42.666;23.292;2022-12-10T12:07:28;93363.44;;;18.48;59.77
4469;BME280;2247;42.666;23.292;2022-12-10T12:10:19;93346.41;;;18.68;58.70
4469;BME280;2247;42.666;23.292;2022-12-10T12:12:57;93335.31;;;18.35;58.66
4469;BME280;2247;42.666;23.292;2022-12-10T12:15:36;93330.84;;;18.39;58.53
4469;BME280;2247;42.666;23.292;2022-12-10T12:18:14;93362.88;;;18.39;58.95
4469;BME280;2247;42.666;23.292;2022-12-10T12:20:48;93309.47;;;18.55;58.06
4469;BME280;2247;42.666;23.292;2022-12-10T12:23:21;93324.97;;;18.33;58.59
4469;BME280;2247;42.666;23.292;2022-12-10T12:25:54;93332.28;;;18.05;59.52
4469;BME280;2247;42.666;23.292;2022-12-10T12:28:29;93328.50;;;18.06;59.95
4469;BME280;2247;42.666;23.292;2022-12-10T12:31:03;93296.59;;;17.94;59.89
4469;BME280;2247;42.666;23.292;2022-12-10T12:33:41;93304.22;;;17.80;60.67
4469;BME280;2247;42.666;23.292;2022-12-10T12:36:16;93291.00;;;17.99;60.62
4469;BME280;2247;42.666;23.292;2022-12-10T12:38:55;93297.81;;;17.96;60.80
4469;BME280;2247;42.666;23.292;2022-12-10T12:41:34;93284.97;;;17.86;61.33
4469;BME280;2247;42.666;23.292;2022-12-10T12:44:12;93292.91;;;18.14;60.71
4469;BME280;2247;42.666;23.292;2022-12-10T12:46:43;93282.34;;;18.18;60.52
4469;BME280;2247;42.666;23.292;2022-12-10T12:49:26;93286.53;;;18.19;60.39
4469;BME280;2247;42.666;23.292;2022-12-10T12:52:18;93278.91;;;18.17;60.34
4469;BME280;2247;42.666;23.292;2022-12-10T12:54:48;93293.44;;;18.04;60.72
4469;BME280;2247;42.666;23.292;2022-12-10T12:57:28;93274.84;;;18.23;60.43
4469;BME280;2247;42.666;23.292;2022-12-10T13:00:03;93286.53;;;18.19;60.47
4469;BME280;2247;42.666;23.292;2022-12-10T13:05:13;93262.53;;;18.19;60.30
4469;BME280;2247;42.666;23.292;2022-12-10T13:14:17;93265.00;;;18.43;59.84
4469;BME280;2247;42.666;23.292;2022-12-10T13:17:24;93228.78;;;18.26;59.51
4469;BME280;2247;42.666;23.292;2022-12-10T13:20:29;93254.13;;;18.17;60.40
4469;BME280;2247;42.666;23.292;2022-12-10T13:23:01;93241.56;;;17.86;61.93
4469;BME280;2247;42.666;23.292;2022-12-10T13:25:40;93254.91;;;18.01;61.15
4469;BME280;2247;42.666;23.292;2022-12-10T13:28:22;93260.66;;;17.88;62.03
4469;BME280;2247;42.666;23.292;2022-12-10T13:37:16;93214.81;;;17.66;62.59
4469;BME280;2247;42.666;23.292;2022-12-10T13:40:01;93215.16;;;17.49;63.33
4469;BME280;2247;42.666;23.292;2022-12-10T13:42:38;93208.72;;;17.22;63.97
4469;BME280;2247;42.666;23.292;2022-12-10T13:45:30;93203.13;;;17.55;63.31
4469;BME280;2247;42.666;23.292;2022-12-10T13:48:30;93201.22;;;17.40;63.51
4469;BME280;2247;42.666;23.292;2022-12-10T13:51:20;93219.16;;;17.27;64.23
4469;BME280;2247;42.666;23.292;2022-12-10T13:54:31;93226.44;;;17.03;65.13
4469;BME280;2247;42.666;23.292;2022-12-10T13:57:25;93225.66;;;17.30;64.00
4469;BME280;2247;42.666;23.292;2022-12-10T14:00:08;93203.66;;;17.17;63.66
4469;BME280;2247;42.666;23.292;2022-12-10T14:03:17;93224.25;;;17.48;63.49
4469;BME280;2247;42.666;23.292;2022-12-10T14:08:57;93202.88;;;17.92;62.21
4469;BME280;2247;42.666;23.292;2022-12-10T14:11:38;93212.91;;;18.14;61.27
4469;BME280;2247;42.666;23.292;2022-12-10T14:14:13;93205.50;;;18.23;60.73
4469;BME280;2247;42.666;23.292;2022-12-10T14:16:42;93198.84;;;18.33;60.51
4469;BME280;2247;42.666;23.292;2022-12-10T14:19:15;93198.94;;;18.36;59.98
4469;BME280;2247;42.666;23.292;2022-12-10T14:21:47;93184.47;;;18.37;59.74
4469;BME280;2247;42.666;23.292;2022-12-10T14:24:27;93175.72;;;18.21;59.87
4469;BME280;2247;42.666;23.292;2022-12-10T14:27:20;93185.56;;;18.01;59.93
4469;BME280;2247;42.666;23.292;2022-12-10T14:29:59;93171.09;;;17.83;60.58
4469;BME280;2247;42.666;23.292;2022-12-10T14:32:34;93178.41;;;18.05;60.35
4469;BME280;2247;42.666;23.292;2022-12-10T14:35:20;93168.81;;;18.01;60.42
4469;BME280;2247;42.666;23.292;2022-12-10T14:37:51;93164.91;;;18.14;60.32
4469;BME280;2247;42.666;23.292;2022-12-10T14:40:39;93150.47;;;18.15;60.17
4469;BME280;2247;42.666;23.292;2022-12-10T14:43:18;93149.63;;;18.11;60.35
4469;BME280;2247;42.666;23.292;2022-12-10T14:51:03;93163.44;;;18.17;60.02
4469;BME280;2247;42.666;23.292;2022-12-10T14:56:08;93162.94;;;18.11;60.46
4469;BME280;2247;42.666;23.292;2022-12-10T15:01:28;93162.69;;;18.16;60.62
4469;BME280;2247;42.666;23.292;2022-12-10T15:04:13;93150.91;;;18.17;60.31
4469;BME280;2247;42.666;23.292;2022-12-10T15:06:51;93157.41;;;18.20;60.11
4469;BME280;2247;42.666;23.292;2022-12-10T15:09:27;93164.13;;;18.14;60.45
4469;BME280;2247;42.666;23.292;2022-12-10T15:12:02;93166.19;;;18.20;60.31
4469;BME280;2247;42.666;23.292;2022-12-10T15:14:38;93154.56;;;18.28;59.66
4469;BME280;2247;42.666;23.292;2022-12-10T15:21:03;93158.81;;;18.14;60.44
4469;BME280;2247;42.666;23.292;2022-12-10T15:23:45;93151.84;;;18.09;60.50
4469;BME280;2247;42.666;23.292;2022-12-10T15:26:19;93144.81;;;18.01;60.46
4469;BME280;2247;42.666;23.292;2022-12-10T15:32:05;93131.59;;;17.89;61.33
4469;BME280;2247;42.666;23.292;2022-12-10T15:34:46;93140.78;;;17.91;61.32
4469;BME280;2247;42.666;23.292;2022-12-10T15:37:38;93134.44;;;17.96;60.86
4469;BME280;2247;42.666;23.292;2022-12-10T15:40:23;93130.81;;;17.88;60.85
4469;BME280;2247;42.666;23.292;2022-12-10T15:42:56;93125.94;;;17.75;61.60
4469;BME280;2247;42.666;23.292;2022-12-10T15:45:40;93107.81;;;17.64;61.68
4469;BME280;2247;42.666;23.292;2022-12-10T15:48:20;93101.38;;;17.65;61.43
4469;BME280;2247;42.666;23.292;2022-12-10T15:53:55;93132.28;;;17.86;61.29
4469;BME280;2247;42.666;23.292;2022-12-10T15:56:33;93108.56;;;17.81;61.11
4469;BME280;2247;42.666;23.292;2022-12-10T15:59:11;93125.00;;;17.83;61.39
4469;BME280;2247;42.666;23.292;2022-12-10T16:01:50;93112.91;;;17.69;61.76